sensor_id;sensor_type;location;lat;lon;timestamp;temperature;humidity
13198;DHT22;6664;52.514;13.440;2023-06-01T00:01:18;16.80;1.00
13198;DHT22;6664;52.514;13.440;2023-06-01T00:04:06;16.80;1.30
13198;DHT22;6664;52.514;13.440;2023-06-01T00:06:53;16.70;1.40
13198;DHT22;6664;52.514;13.440;2023-06-01T00:09:38;16.70;2.00
13198;DHT22;6664;52.514;13.440;2023-06-01T00:12:26;16.60;2.20
13198;DHT22;6664;52.514;13.440;2023-06-01T00:15:12;16.50;2.80
13198;DHT22;6664;52.514;13.440;2023-06-01T00:18:00;16.40;2.90
13198;DHT22;6664;52.514;13.440;2023-06-01T00:20:51;16.40;3.50
13198;DHT22;6664;52.514;13.440;2023-06-01T00:23:36;16.30;3.40
13198;DHT22;6664;52.514;13.440;2023-06-01T00:26:26;16.30;3.60
13198;DHT22;6664;52.514;13.440;2023-06-01T00:29:14;16.20;3.80
13198;DHT22;6664;52.514;13.440;2023-06-01T00:32:00;16.20;4.10
13198;DHT22;6664;52.514;13.440;2023-06-01T00:34:46;16.10;4.30
13198;DHT22;6664;52.514;13.440;2023-06-01T00:37:32;16.00;4.50
13198;DHT22;6664;52.514;13.440;2023-06-01T00:40:17;15.90;5.10
13198;DHT22;6664;52.514;13.440;2023-06-01T00:43:05;15.90;5.70
13198;DHT22;6664;52.514;13.440;2023-06-01T00:45:51;15.90;5.60
13198;DHT22;6664;52.514;13.440;2023-06-01T00:48:39;16.00;5.80
13198;DHT22;6664;52.514;13.440;2023-06-01T00:51:25;15.90;6.00
13198;DHT22;6664;52.514;13.440;2023-06-01T00:54:13;15.80;6.20
13198;DHT22;6664;52.514;13.440;2023-06-01T00:57:00;15.70;6.30
13198;DHT22;6664;52.514;13.440;2023-06-01T00:59:46;15.70;6.80
13198;DHT22;6664;52.514;13.440;2023-06-01T01:02:32;15.70;7.30
13198;DHT22;6664;52.514;13.440;2023-06-01T01:05:19;15.70;7.60
13198;DHT22;6664;52.514;13.440;2023-06-01T01:14:14;15.60;8.30
13198;DHT22;6664;52.514;13.440;2023-06-01T01:17:18;15.50;8.60
13198;DHT22;6664;52.514;13.440;2023-06-01T01:20:09;15.50;9.00
13198;DHT22;6664;52.514;13.440;2023-06-01T01:23:20;15.40;9.10
13198;DHT22;6664;52.514;13.440;2023-06-01T01:26:39;15.40;9.70
13198;DHT22;6664;52.514;13.440;2023-06-01T01:29:23;15.30;9.70
13198;DHT22;6664;52.514;13.440;2023-06-01T01:32:12;15.30;9.90
13198;DHT22;6664;52.514;13.440;2023-06-01T01:35:00;15.30;10.10
13198;DHT22;6664;52.514;13.440;2023-06-01T01:37:53;15.30;10.30
13198;DHT22;6664;52.514;13.440;2023-06-01T01:40:39;15.30;10.70
13198;DHT22;6664;52.514;13.440;2023-06-01T01:43:24;15.10;10.60
13198;DHT22;6664;52.514;13.440;2023-06-01T01:46:22;15.20;10.90
13198;DHT22;6664;52.514;13.440;2023-06-01T01:49:18;15.10;11.30
13198;DHT22;6664;52.514;13.440;2023-06-01T01:52:15;14.90;11.80
13198;DHT22;6664;52.514;13.440;2023-06-01T01:55:07;14.90;11.80
13198;DHT22;6664;52.514;13.440;2023-06-01T01:57:55;14.80;11.90
13198;DHT22;6664;52.514;13.440;2023-06-01T02:00:43;14.80;12.40
13198;DHT22;6664;52.514;13.440;2023-06-01T02:03:29;14.70;12.60
13198;DHT22;6664;52.514;13.440;2023-06-01T02:06:15;14.60;12.90
13198;DHT22;6664;52.514;13.440;2023-06-01T02:09:01;14.60;13.20
13198;DHT22;6664;52.514;13.440;2023-06-01T02:11:49;14.50;13.40
13198;DHT22;6664;52.514;13.440;2023-06-01T02:14:37;14.50;13.80
13198;DHT22;6664;52.514;13.440;2023-06-01T02:17:23;14.40;14.20
13198;DHT22;6664;52.514;13.440;2023-06-01T02:20:10;14.30;14.70
13198;DHT22;6664;52.514;13.440;2023-06-01T02:22:57;14.20;14.90
13198;DHT22;6664;52.514;13.440;2023-06-01T02:25:42;14.10;15.20
13198;DHT22;6664;52.514;13.440;2023-06-01T02:28:28;14.10;15.40
13198;DHT22;6664;52.514;13.440;2023-06-01T02:31:13;14.00;15.80
13198;DHT22;6664;52.514;13.440;2023-06-01T02:34:00;14.00;15.80
13198;DHT22;6664;52.514;13.440;2023-06-01T02:36:51;13.90;15.80
13198;DHT22;6664;52.514;13.440;2023-06-01T02:39:40;13.90;16.20
13198;DHT22;6664;52.514;13.440;2023-06-01T02:42:26;13.80;16.80
13198;DHT22;6664;52.514;13.440;2023-06-01T02:45:11;13.80;16.70
13198;DHT22;6664;52.514;13.440;2023-06-01T02:47:57;13.70;17.30
13198;DHT22;6664;52.514;13.440;2023-06-01T02:50:45;13.70;17.60
13198;DHT22;6664;52.514;13.440;2023-06-01T02:53:31;13.60;17.70
13198;DHT22;6664;52.514;13.440;2023-06-01T02:56:17;13.50;18.10
13198;DHT22;6664;52.514;13.440;2023-06-01T02:59:02;13.50;18.40
13198;DHT22;6664;52.514;13.440;2023-06-01T03:01:48;13.50;18.70
13198;DHT22;6664;52.514;13.440;2023-06-01T03:04:37;13.50;19.10
13198;DHT22;6664;52.514;13.440;2023-06-01T03:07:24;13.50;19.10
13198;DHT22;6664;52.514;13.440;2023-06-01T03:10:13;13.40;19.20
13198;DHT22;6664;52.514;13.440;2023-06-01T03:12:58;13.30;19.80
13198;DHT22;6664;52.514;13.440;2023-06-01T03:15:44;13.20;19.70
13198;DHT22;6664;52.514;13.440;2023-06-01T03:18:30;13.10;20.00
13198;DHT22;6664;52.514;13.440;2023-06-01T03:21:16;13.10;20.60
13198;DHT22;6664;52.514;13.440;2023-06-01T03:24:01;13.10;20.90
13198;DHT22;6664;52.514;13.440;2023-06-01T03:26:47;13.00;21.50
13198;DHT22;6664;52.514;13.440;2023-06-01T03:29:35;12.90;22.10
13198;DHT22;6664;52.514;13.440;2023-06-01T03:32:21;12.90;22.50
13198;DHT22;6664;52.514;13.440;2023-06-01T03:35:06;12.80;22.80
13198;DHT22;6664;52.514;13.440;2023-06-01T03:37:53;12.70;23.10
13198;DHT22;6664;52.514;13.440;2023-06-01T03:40:38;12.70;23.80
13198;DHT22;6664;52.514;13.440;2023-06-01T03:43:24;12.60;24.20
13198;DHT22;6664;52.514;13.440;2023-06-01T03:46:11;12.60;24.70
13198;DHT22;6664;52.514;13.440;2023-06-01T03:48:57;12.50;25.20
13198;DHT22;6664;52.514;13.440;2023-06-01T03:51:45;12.50;25.60
13198;DHT22;6664;52.514;13.440;2023-06-01T03:54:30;12.50;26.10
13198;DHT22;6664;52.514;13.440;2023-06-01T03:57:18;12.40;26.20
13198;DHT22;6664;52.514;13.440;2023-06-01T04:00:04;12.30;26.60
13198;DHT22;6664;52.514;13.440;2023-06-01T04:03:09;12.30;26.90
13198;DHT22;6664;52.514;13.440;2023-06-01T04:05:55;12.30;27.80
13198;DHT22;6664;52.514;13.440;2023-06-01T04:08:45;12.20;27.80
13198;DHT22;6664;52.514;13.440;2023-06-01T04:11:34;12.20;28.40
13198;DHT22;6664;52.514;13.440;2023-06-01T04:14:20;12.10;28.80
13198;DHT22;6664;52.514;13.440;2023-06-01T04:17:05;12.10;29.30
13198;DHT22;6664;52.514;13.440;2023-06-01T04:20:15;12.00;29.70
13198;DHT22;6664;52.514;13.440;2023-06-01T04:23:01;12.00;30.20
13198;DHT22;6664;52.514;13.440;2023-06-01T04:25:47;12.00;30.70
13198;DHT22;6664;52.514;13.440;2023-06-01T04:28:36;12.00;31.10
13198;DHT22;6664;52.514;13.440;2023-06-01T04:31:25;12.10;31.30
13198;DHT22;6664;52.514;13.440;2023-06-01T04:34:11;12.10;30.80
13198;DHT22;6664;52.514;13.440;2023-06-01T04:36:59;12.30;30.10
13198;DHT22;6664;52.514;13.440;2023-06-01T04:39:46;12.30;29.60
13198;DHT22;6664;52.514;13.440;2023-06-01T04:42:38;12.50;28.70
13198;DHT22;6664;52.514;13.440;2023-06-01T04:45:26;12.60;28.00
13198;DHT22;6664;52.514;13.440;2023-06-01T04:48:16;12.70;28.10
13198;DHT22;6664;52.514;13.440;2023-06-01T04:51:05;12.70;27.40
13198;DHT22;6664;52.514;13.440;2023-06-01T04:53:52;12.70;27.50
13198;DHT22;6664;52.514;13.440;2023-06-01T04:56:37;12.70;27.90
13198;DHT22;6664;52.514;13.440;2023-06-01T04:59:26;12.80;26.90
13198;DHT22;6664;52.514;13.440;2023-06-01T05:02:11;12.70;26.80
13198;DHT22;6664;52.514;13.440;2023-06-01T05:05:01;12.80;26.70
13198;DHT22;6664;52.514;13.440;2023-06-01T05:07:52;12.90;26.70
13198;DHT22;6664;52.514;13.440;2023-06-01T05:10:38;12.90;26.60
13198;DHT22;6664;52.514;13.440;2023-06-01T05:13:28;12.80;26.70
13198;DHT22;6664;52.514;13.440;2023-06-01T05:16:13;12.60;27.00
13198;DHT22;6664;52.514;13.440;2023-06-01T05:18:59;12.40;27.40
13198;DHT22;6664;52.514;13.440;2023-06-01T05:21:45;12.20;28.20
13198;DHT22;6664;52.514;13.440;2023-06-01T05:24:34;12.40;27.90
13198;DHT22;6664;52.514;13.440;2023-06-01T05:27:19;12.50;28.00
13198;DHT22;6664;52.514;13.440;2023-06-01T05:30:08;12.70;27.30
13198;DHT22;6664;52.514;13.440;2023-06-01T05:32:55;12.50;26.90
13198;DHT22;6664;52.514;13.440;2023-06-01T05:35:41;12.30;27.80
13198;DHT22;6664;52.514;13.440;2023-06-01T05:38:29;12.30;27.90
13198;DHT22;6664;52.514;13.440;2023-06-01T05:41:15;12.50;27.40
13198;DHT22;6664;52.514;13.440;2023-06-01T05:44:01;12.60;27.20
13198;DHT22;6664;52.514;13.440;2023-06-01T05:46:49;12.60;26.20
13198;DHT22;6664;52.514;13.440;2023-06-01T05:49:36;12.50;26.00
13198;DHT22;6664;52.514;13.440;2023-06-01T05:52:22;12.60;25.50
13198;DHT22;6664;52.514;13.440;2023-06-01T05:55:08;12.80;24.90
13198;DHT22;6664;52.514;13.440;2023-06-01T05:58:01;12.70;23.80
13198;DHT22;6664;52.514;13.440;2023-06-01T06:00:47;12.90;23.40
13198;DHT22;6664;52.514;13.440;2023-06-01T06:03:32;13.20;22.30
13198;DHT22;6664;52.514;13.440;2023-06-01T06:06:19;13.20;21.80
13198;DHT22;6664;52.514;13.440;2023-06-01T06:09:08;13.20;21.30
13198;DHT22;6664;52.514;13.440;2023-06-01T06:11:55;13.20;21.40
13198;DHT22;6664;52.514;13.440;2023-06-01T06:14:41;13.40;21.30
13198;DHT22;6664;52.514;13.440;2023-06-01T06:17:27;13.30;20.30
13198;DHT22;6664;52.514;13.440;2023-06-01T06:20:13;13.60;20.00
13198;DHT22;6664;52.514;13.440;2023-06-01T06:23:00;13.60;19.50
13198;DHT22;6664;52.514;13.440;2023-06-01T06:25:51;13.40;19.40
13198;DHT22;6664;52.514;13.440;2023-06-01T06:28:37;13.80;18.90
13198;DHT22;6664;52.514;13.440;2023-06-01T06:31:22;14.00;18.40
13198;DHT22;6664;52.514;13.440;2023-06-01T06:34:10;14.30;17.50
13198;DHT22;6664;52.514;13.440;2023-06-01T06:36:59;14.60;16.20
13198;DHT22;6664;52.514;13.440;2023-06-01T06:39:45;14.60;15.20
13198;DHT22;6664;52.514;13.440;2023-06-01T06:42:33;14.90;14.30
13198;DHT22;6664;52.514;13.440;2023-06-01T06:45:19;14.50;14.50
13198;DHT22;6664;52.514;13.440;2023-06-01T06:48:05;14.20;15.40
13198;DHT22;6664;52.514;13.440;2023-06-01T06:50:50;14.20;14.80
13198;DHT22;6664;52.514;13.440;2023-06-01T06:53:36;14.20;15.40
13198;DHT22;6664;52.514;13.440;2023-06-01T06:56:22;13.80;15.60
13198;DHT22;6664;52.514;13.440;2023-06-01T06:59:08;14.30;14.80
13198;DHT22;6664;52.514;13.440;2023-06-01T07:01:54;13.80;15.10
13198;DHT22;6664;52.514;13.440;2023-06-01T07:04:40;14.10;14.60
13198;DHT22;6664;52.514;13.440;2023-06-01T07:07:25;14.50;14.10
13198;DHT22;6664;52.514;13.440;2023-06-01T07:10:12;15.00;13.00
13198;DHT22;6664;52.514;13.440;2023-06-01T07:12:58;14.80;12.90
13198;DHT22;6664;52.514;13.440;2023-06-01T07:15:43;15.00;12.30
13198;DHT22;6664;52.514;13.440;2023-06-01T07:18:28;15.10;12.00
13198;DHT22;6664;52.514;13.440;2023-06-01T07:21:16;15.00;11.90
13198;DHT22;6664;52.514;13.440;2023-06-01T07:24:02;15.00;11.90
13198;DHT22;6664;52.514;13.440;2023-06-01T07:26:49;15.00;11.70
13198;DHT22;6664;52.514;13.440;2023-06-01T07:29:36;14.70;11.70
13198;DHT22;6664;52.514;13.440;2023-06-01T07:32:25;14.80;11.90
13198;DHT22;6664;52.514;13.440;2023-06-01T07:35:11;14.30;12.50
13198;DHT22;6664;52.514;13.440;2023-06-01T07:38:00;14.50;12.60
13198;DHT22;6664;52.514;13.440;2023-06-01T07:40:49;14.70;12.70
13198;DHT22;6664;52.514;13.440;2023-06-01T07:43:38;14.90;11.70
13198;DHT22;6664;52.514;13.440;2023-06-01T07:46:25;15.10;10.70
13198;DHT22;6664;52.514;13.440;2023-06-01T07:49:12;14.50;11.90
13198;DHT22;6664;52.514;13.440;2023-06-01T07:51:59;14.50;11.90
13198;DHT22;6664;52.514;13.440;2023-06-01T07:54:46;14.20;12.90
13198;DHT22;6664;52.514;13.440;2023-06-01T07:57:33;13.90;12.60
13198;DHT22;6664;52.514;13.440;2023-06-01T08:00:18;13.80;13.50
13198;DHT22;6664;52.514;13.440;2023-06-01T08:03:04;13.30;14.60
13198;DHT22;6664;52.514;13.440;2023-06-01T08:05:52;13.10;15.10
13198;DHT22;6664;52.514;13.440;2023-06-01T08:08:43;13.00;15.90
13198;DHT22;6664;52.514;13.440;2023-06-01T08:11:31;13.00;16.30
13198;DHT22;6664;52.514;13.440;2023-06-01T08:14:17;12.80;16.50
13198;DHT22;6664;52.514;13.440;2023-06-01T08:17:05;12.80;17.00
13198;DHT22;6664;52.514;13.440;2023-06-01T08:19:52;12.90;17.10
13198;DHT22;6664;52.514;13.440;2023-06-01T08:22:38;12.80;17.10
13198;DHT22;6664;52.514;13.440;2023-06-01T08:25:27;13.00;17.00
13198;DHT22;6664;52.514;13.440;2023-06-01T08:28:12;12.90;16.40
13198;DHT22;6664;52.514;13.440;2023-06-01T08:31:00;13.00;16.30
13198;DHT22;6664;52.514;13.440;2023-06-01T08:33:47;13.10;16.20
13198;DHT22;6664;52.514;13.440;2023-06-01T08:36:33;13.30;15.70
13198;DHT22;6664;52.514;13.440;2023-06-01T08:39:25;13.20;15.70
13198;DHT22;6664;52.514;13.440;2023-06-01T08:43:17;13.30;15.30
13198;DHT22;6664;52.514;13.440;2023-06-01T08:45:37;13.40;15.40
13198;DHT22;6664;52.514;13.440;2023-06-01T08:48:23;13.60;15.50
13198;DHT22;6664;52.514;13.440;2023-06-01T08:51:10;13.60;15.20
13198;DHT22;6664;52.514;13.440;2023-06-01T08:53:57;13.70;15.20
13198;DHT22;6664;52.514;13.440;2023-06-01T08:56:42;13.80;14.20
13198;DHT22;6664;52.514;13.440;2023-06-01T08:59:29;13.80;14.20
13198;DHT22;6664;52.514;13.440;2023-06-01T09:02:15;14.00;13.90
13198;DHT22;6664;52.514;13.440;2023-06-01T09:05:04;14.10;13.70
13198;DHT22;6664;52.514;13.440;2023-06-01T09:07:50;14.20;13.80
13198;DHT22;6664;52.514;13.440;2023-06-01T09:10:36;14.20;13.60
13198;DHT22;6664;52.514;13.440;2023-06-01T09:16:17;14.40;12.80
13198;DHT22;6664;52.514;13.440;2023-06-01T09:19:03;14.60;12.70
13198;DHT22;6664;52.514;13.440;2023-06-01T09:21:56;14.70;11.70
13198;DHT22;6664;52.514;13.440;2023-06-01T09:24:55;14.80;11.80
13198;DHT22;6664;52.514;13.440;2023-06-01T09:30:43;15.00;11.90
13198;DHT22;6664;52.514;13.440;2023-06-01T09:33:30;15.00;11.90
13198;DHT22;6664;52.514;13.440;2023-06-01T09:36:24;15.10;12.00
13198;DHT22;6664;52.514;13.440;2023-06-01T09:39:17;15.20;12.00
13198;DHT22;6664;52.514;13.440;2023-06-01T09:42:03;15.30;11.50
13198;DHT22;6664;52.514;13.440;2023-06-01T09:44:49;15.20;11.10
13198;DHT22;6664;52.514;13.440;2023-06-01T09:47:35;15.30;11.50
13198;DHT22;6664;52.514;13.440;2023-06-01T09:50:34;15.50;11.00
13198;DHT22;6664;52.514;13.440;2023-06-01T09:53:20;15.60;10.30
13198;DHT22;6664;52.514;13.440;2023-06-01T09:56:08;15.70;10.20
13198;DHT22;6664;52.514;13.440;2023-06-01T09:58:58;15.90;10.40
13198;DHT22;6664;52.514;13.440;2023-06-01T10:01:53;15.90;9.40
13198;DHT22;6664;52.514;13.440;2023-06-01T10:04:49;16.00;9.00
13198;DHT22;6664;52.514;13.440;2023-06-01T10:07:35;16.10;8.50
13198;DHT22;6664;52.514;13.440;2023-06-01T10:10:23;16.10;8.00
13198;DHT22;6664;52.514;13.440;2023-06-01T10:13:11;16.10;8.20
13198;DHT22;6664;52.514;13.440;2023-06-01T10:15:58;16.10;8.30
13198;DHT22;6664;52.514;13.440;2023-06-01T10:18:49;16.20;7.90
13198;DHT22;6664;52.514;13.440;2023-06-01T10:21:36;16.30;8.10
13198;DHT22;6664;52.514;13.440;2023-06-01T10:24:23;16.60;7.80
13198;DHT22;6664;52.514;13.440;2023-06-01T10:27:19;16.70;7.40
13198;DHT22;6664;52.514;13.440;2023-06-01T10:30:09;16.80;7.20
13198;DHT22;6664;52.514;13.440;2023-06-01T10:32:55;16.70;7.40
13198;DHT22;6664;52.514;13.440;2023-06-01T10:38:27;16.90;6.90
13198;DHT22;6664;52.514;13.440;2023-06-01T10:41:29;17.10;6.70
13198;DHT22;6664;52.514;13.440;2023-06-01T10:50:14;17.40;5.20
13198;DHT22;6664;52.514;13.440;2023-06-01T10:56:25;17.60;5.20
13198;DHT22;6664;52.514;13.440;2023-06-01T10:59:14;17.70;4.70
13198;DHT22;6664;52.514;13.440;2023-06-01T11:02:06;17.80;4.70
13198;DHT22;6664;52.514;13.440;2023-06-01T11:11:15;18.00;3.70
13198;DHT22;6664;52.514;13.440;2023-06-01T11:14:09;17.90;3.20
13198;DHT22;6664;52.514;13.440;2023-06-01T11:17:26;18.10;3.10
13198;DHT22;6664;52.514;13.440;2023-06-01T11:20:14;18.30;3.20
13198;DHT22;6664;52.514;13.440;2023-06-01T11:23:00;18.40;2.80
13198;DHT22;6664;52.514;13.440;2023-06-01T11:25:46;18.40;2.40
13198;DHT22;6664;52.514;13.440;2023-06-01T11:28:33;18.50;2.00
13198;DHT22;6664;52.514;13.440;2023-06-01T11:31:20;18.40;1.30
13198;DHT22;6664;52.514;13.440;2023-06-01T11:34:11;18.60;1.00
13198;DHT22;6664;52.514;13.440;2023-06-01T11:36:56;18.60;1.10
13198;DHT22;6664;52.514;13.440;2023-06-01T11:39:42;18.70;1.00
13198;DHT22;6664;52.514;13.440;2023-06-01T11:42:34;18.70;1.10
13198;DHT22;6664;52.514;13.440;2023-06-01T11:45:21;18.70;1.30
13198;DHT22;6664;52.514;13.440;2023-06-01T11:48:10;18.80;1.30
13198;DHT22;6664;52.514;13.440;2023-06-01T11:50:58;18.90;1.00
13198;DHT22;6664;52.514;13.440;2023-06-01T11:53:45;18.70;1.00
13198;DHT22;6664;52.514;13.440;2023-06-01T11:56:33;18.80;1.00
13198;DHT22;6664;52.514;13.440;2023-06-01T11:59:19;19.00;1.00
13198;DHT22;6664;52.514;13.440;2023-06-01T12:02:23;19.20;1.00
13198;DHT22;6664;52.514;13.440;2023-06-01T12:05:12;19.20;1.00
13198;DHT22;6664;52.514;13.440;2023-06-01T12:07:59;19.20;1.00
13198;DHT22;6664;52.514;13.440;2023-06-01T12:10:46;19.30;1.00
13198;DHT22;6664;52.514;13.440;2023-06-01T12:13:36;19.40;1.00
13198;DHT22;6664;52.514;13.440;2023-06-01T12:16:22;19.80;1.00
13198;DHT22;6664;52.514;13.440;2023-06-01T12:19:11;20.50;1.00
13198;DHT22;6664;52.514;13.440;2023-06-01T12:21:59;21.20;1.00
13198;DHT22;6664;52.514;13.440;2023-06-01T12:24:49;21.70;1.00
13198;DHT22;6664;52.514;13.440;2023-06-01T12:27:35;22.80;1.00
13198;DHT22;6664;52.514;13.440;2023-06-01T12:30:23;27.00;1.00
13198;DHT22;6664;52.514;13.440;2023-06-01T12:33:17;28.60;1.00
13198;DHT22;6664;52.514;13.440;2023-06-01T12:36:33;31.10;1.00
13198;DHT22;6664;52.514;13.440;2023-06-01T12:39:34;31.40;1.00
13198;DHT22;6664;52.514;13.440;2023-06-01T12:42:36;32.80;1.00
13198;DHT22;6664;52.514;13.440;2023-06-01T12:45:25;34.90;1.00
13198;DHT22;6664;52.514;13.440;2023-06-01T12:48:35;35.80;1.00
13198;DHT22;6664;52.514;13.440;2023-06-01T12:51:21;35.60;1.00
13198;DHT22;6664;52.514;13.440;2023-06-01T12:54:07;36.90;1.00
13198;DHT22;6664;52.514;13.440;2023-06-01T12:56:53;34.70;1.00
13198;DHT22;6664;52.514;13.440;2023-06-01T12:59:41;38.70;1.00
13198;DHT22;6664;52.514;13.440;2023-06-01T13:02:27;38.60;1.00
13198;DHT22;6664;52.514;13.440;2023-06-01T13:05:16;42.90;1.00
13198;DHT22;6664;52.514;13.440;2023-06-01T13:08:02;39.70;1.00
13198;DHT22;6664;52.514;13.440;2023-06-01T13:10:53;40.10;1.00
13198;DHT22;6664;52.514;13.440;2023-06-01T13:13:41;43.10;1.00
13198;DHT22;6664;52.514;13.440;2023-06-01T13:16:34;40.70;1.00
13198;DHT22;6664;52.514;13.440;2023-06-01T13:19:22;42.10;1.00
13198;DHT22;6664;52.514;13.440;2023-06-01T13:22:10;42.70;1.00
13198;DHT22;6664;52.514;13.440;2023-06-01T13:24:56;45.20;1.00
13198;DHT22;6664;52.514;13.440;2023-06-01T13:27:50;49.40;1.00
13198;DHT22;6664;52.514;13.440;2023-06-01T13:30:36;45.00;1.00
13198;DHT22;6664;52.514;13.440;2023-06-01T13:33:22;47.10;1.00
13198;DHT22;6664;52.514;13.440;2023-06-01T13:36:07;47.00;1.00
13198;DHT22;6664;52.514;13.440;2023-06-01T13:38:53;43.20;1.00
13198;DHT22;6664;52.514;13.440;2023-06-01T13:41:38;44.30;1.00
13198;DHT22;6664;52.514;13.440;2023-06-01T13:44:26;42.70;1.00
13198;DHT22;6664;52.514;13.440;2023-06-01T13:47:15;43.40;1.00
13198;DHT22;6664;52.514;13.440;2023-06-01T13:50:01;41.30;1.00
13198;DHT22;6664;52.514;13.440;2023-06-01T13:52:48;45.60;1.00
13198;DHT22;6664;52.514;13.440;2023-06-01T13:55:34;46.50;1.00
13198;DHT22;6664;52.514;13.440;2023-06-01T13:58:19;45.10;1.00
13198;DHT22;6664;52.514;13.440;2023-06-01T14:01:08;42.50;1.00
13198;DHT22;6664;52.514;13.440;2023-06-01T14:03:53;44.20;1.00
13198;DHT22;6664;52.514;13.440;2023-06-01T14:06:42;45.50;1.00
13198;DHT22;6664;52.514;13.440;2023-06-01T14:09:27;45.90;1.00
13198;DHT22;6664;52.514;13.440;2023-06-01T14:12:15;42.90;1.00
13198;DHT22;6664;52.514;13.440;2023-06-01T14:15:01;41.80;1.00
13198;DHT22;6664;52.514;13.440;2023-06-01T14:17:47;42.90;1.00
13198;DHT22;6664;52.514;13.440;2023-06-01T14:20:35;39.40;1.00
13198;DHT22;6664;52.514;13.440;2023-06-01T14:23:23;38.30;1.00
13198;DHT22;6664;52.514;13.440;2023-06-01T14:26:09;40.10;1.00
13198;DHT22;6664;52.514;13.440;2023-06-01T14:28:56;40.70;1.00
13198;DHT22;6664;52.514;13.440;2023-06-01T14:31:41;37.70;1.00
13198;DHT22;6664;52.514;13.440;2023-06-01T14:34:30;40.40;1.00
13198;DHT22;6664;52.514;13.440;2023-06-01T14:37:19;40.80;1.00
13198;DHT22;6664;52.514;13.440;2023-06-01T14:40:06;43.40;1.00
13198;DHT22;6664;52.514;13.440;2023-06-01T14:42:55;38.40;1.00
13198;DHT22;6664;52.514;13.440;2023-06-01T14:45:44;37.00;1.00
13198;DHT22;6664;52.514;13.440;2023-06-01T14:48:30;35.80;1.00
13198;DHT22;6664;52.514;13.440;2023-06-01T14:51:19;32.50;1.00
13198;DHT22;6664;52.514;13.440;2023-06-01T14:54:05;29.30;1.00
13198;DHT22;6664;52.514;13.440;2023-06-01T14:56:53;26.90;1.00
13198;DHT22;6664;52.514;13.440;2023-06-01T14:59:40;26.40;1.00
13198;DHT22;6664;52.514;13.440;2023-06-01T15:02:46;30.00;1.00
13198;DHT22;6664;52.514;13.440;2023-06-01T15:05:34;28.90;1.00
13198;DHT22;6664;52.514;13.440;2023-06-01T15:08:20;29.90;1.00
13198;DHT22;6664;52.514;13.440;2023-06-01T15:11:06;26.80;1.00
13198;DHT22;6664;52.514;13.440;2023-06-01T15:13:59;25.90;1.00
13198;DHT22;6664;52.514;13.440;2023-06-01T15:16:44;24.40;1.00
13198;DHT22;6664;52.514;13.440;2023-06-01T15:19:31;24.20;1.00
13198;DHT22;6664;52.514;13.440;2023-06-01T15:22:16;24.10;1.00
13198;DHT22;6664;52.514;13.440;2023-06-01T15:25:02;23.90;1.00
13198;DHT22;6664;52.514;13.440;2023-06-01T15:27:47;23.90;1.00
13198;DHT22;6664;52.514;13.440;2023-06-01T15:30:33;23.80;1.00
13198;DHT22;6664;52.514;13.440;2023-06-01T15:33:20;23.80;1.00
13198;DHT22;6664;52.514;13.440;2023-06-01T15:36:06;23.60;1.00
13198;DHT22;6664;52.514;13.440;2023-06-01T15:38:52;23.90;1.00
13198;DHT22;6664;52.514;13.440;2023-06-01T15:41:39;24.40;1.00
13198;DHT22;6664;52.514;13.440;2023-06-01T15:44:24;24.90;1.00
13198;DHT22;6664;52.514;13.440;2023-06-01T15:47:12;24.80;1.00
13198;DHT22;6664;52.514;13.440;2023-06-01T15:49:58;25.00;1.00
13198;DHT22;6664;52.514;13.440;2023-06-01T15:52:44;27.80;1.00
13198;DHT22;6664;52.514;13.440;2023-06-01T15:55:32;27.80;1.00
13198;DHT22;6664;52.514;13.440;2023-06-01T15:58:18;26.50;1.00
13198;DHT22;6664;52.514;13.440;2023-06-01T16:01:05;24.40;1.00
13198;DHT22;6664;52.514;13.440;2023-06-01T16:03:55;23.40;1.00
13198;DHT22;6664;52.514;13.440;2023-06-01T16:06:42;23.10;1.00
13198;DHT22;6664;52.514;13.440;2023-06-01T16:09:28;22.90;1.00
13198;DHT22;6664;52.514;13.440;2023-06-01T16:12:14;23.20;1.00
13198;DHT22;6664;52.514;13.440;2023-06-01T16:14:59;22.90;1.00
13198;DHT22;6664;52.514;13.440;2023-06-01T16:17:45;22.60;1.00
13198;DHT22;6664;52.514;13.440;2023-06-01T16:20:30;22.30;1.00
13198;DHT22;6664;52.514;13.440;2023-06-01T16:23:17;22.10;1.00
13198;DHT22;6664;52.514;13.440;2023-06-01T16:26:05;21.80;1.00
13198;DHT22;6664;52.514;13.440;2023-06-01T16:28:51;21.70;1.00
13198;DHT22;6664;52.514;13.440;2023-06-01T16:31:36;21.80;1.00
13198;DHT22;6664;52.514;13.440;2023-06-01T16:34:24;21.60;1.00
13198;DHT22;6664;52.514;13.440;2023-06-01T16:37:12;21.50;1.00
13198;DHT22;6664;52.514;13.440;2023-06-01T16:39:58;21.40;1.00
13198;DHT22;6664;52.514;13.440;2023-06-01T16:42:43;21.30;1.00
13198;DHT22;6664;52.514;13.440;2023-06-01T16:45:29;21.30;1.00
13198;DHT22;6664;52.514;13.440;2023-06-01T16:48:16;21.30;1.00
13198;DHT22;6664;52.514;13.440;2023-06-01T16:51:04;21.30;1.00
13198;DHT22;6664;52.514;13.440;2023-06-01T16:53:51;21.20;1.00
13198;DHT22;6664;52.514;13.440;2023-06-01T16:56:38;21.10;1.00
13198;DHT22;6664;52.514;13.440;2023-06-01T16:59:24;21.20;1.00
13198;DHT22;6664;52.514;13.440;2023-06-01T17:02:09;21.10;1.00
13198;DHT22;6664;52.514;13.440;2023-06-01T17:04:55;21.10;1.00
13198;DHT22;6664;52.514;13.440;2023-06-01T17:07:43;21.20;1.00
13198;DHT22;6664;52.514;13.440;2023-06-01T17:10:29;21.10;1.00
13198;DHT22;6664;52.514;13.440;2023-06-01T17:13:15;21.10;1.00
13198;DHT22;6664;52.514;13.440;2023-06-01T17:16:01;21.10;1.00
13198;DHT22;6664;52.514;13.440;2023-06-01T17:18:48;21.00;1.00
13198;DHT22;6664;52.514;13.440;2023-06-01T17:21:36;21.00;1.00
13198;DHT22;6664;52.514;13.440;2023-06-01T17:24:22;20.80;1.00
13198;DHT22;6664;52.514;13.440;2023-06-01T17:27:11;20.80;1.00
13198;DHT22;6664;52.514;13.440;2023-06-01T17:29:56;20.70;1.00
13198;DHT22;6664;52.514;13.440;2023-06-01T17:32:41;20.60;1.00
13198;DHT22;6664;52.514;13.440;2023-06-01T17:35:27;20.60;1.00
13198;DHT22;6664;52.514;13.440;2023-06-01T17:38:13;20.50;1.00
13198;DHT22;6664;52.514;13.440;2023-06-01T17:40:59;20.40;1.00
13198;DHT22;6664;52.514;13.440;2023-06-01T17:43:44;20.30;1.00
13198;DHT22;6664;52.514;13.440;2023-06-01T17:46:30;20.40;1.00
13198;DHT22;6664;52.514;13.440;2023-06-01T17:49:16;20.50;1.00
13198;DHT22;6664;52.514;13.440;2023-06-01T17:52:02;20.30;1.00
13198;DHT22;6664;52.514;13.440;2023-06-01T17:54:48;20.20;1.00
13198;DHT22;6664;52.514;13.440;2023-06-01T17:57:34;20.20;1.00
13198;DHT22;6664;52.514;13.440;2023-06-01T18:00:20;20.00;1.00
13198;DHT22;6664;52.514;13.440;2023-06-01T18:03:06;20.00;1.00
13198;DHT22;6664;52.514;13.440;2023-06-01T18:05:53;19.80;1.00
13198;DHT22;6664;52.514;13.440;2023-06-01T18:08:39;19.80;1.00
13198;DHT22;6664;52.514;13.440;2023-06-01T18:11:25;19.70;1.00
13198;DHT22;6664;52.514;13.440;2023-06-01T18:14:11;19.70;1.00
13198;DHT22;6664;52.514;13.440;2023-06-01T18:16:56;19.60;1.00
13198;DHT22;6664;52.514;13.440;2023-06-01T18:19:42;19.50;1.00
13198;DHT22;6664;52.514;13.440;2023-06-01T18:22:27;19.50;1.00